sensor_id;sensor_type;location;lat;lon;timestamp;P1;durP1;ratioP1;P2;durP2;ratioP2
80237;SDS011;69544;42.138;24.742;2023-04-25T00:01:14;3.15;;;2.40;;
80237;SDS011;69544;42.138;24.742;2023-04-25T00:03:40;3.35;;;2.50;;
80237;SDS011;69544;42.138;24.742;2023-04-25T00:06:06;4.65;;;2.47;;
80237;SDS011;69544;42.138;24.742;2023-04-25T00:08:32;3.20;;;2.47;;
80237;SDS011;69544;42.138;24.742;2023-04-25T00:10:58;2.38;;;2.15;;
80237;SDS011;69544;42.138;24.742;2023-04-25T00:13:25;2.80;;;2.35;;
80237;SDS011;69544;42.138;24.742;2023-04-25T00:15:51;3.65;;;2.50;;
80237;SDS011;69544;42.138;24.742;2023-04-25T00:18:18;3.80;;;2.55;;
80237;SDS011;69544;42.138;24.742;2023-04-25T00:20:45;3.05;;;2.20;;
80237;SDS011;69544;42.138;24.742;2023-04-25T00:23:15;3.42;;;2.40;;
80237;SDS011;69544;42.138;24.742;2023-04-25T00:25:45;3.47;;;2.50;;
80237;SDS011;69544;42.138;24.742;2023-04-25T00:28:11;3.92;;;2.45;;
80237;SDS011;69544;42.138;24.742;2023-04-25T00:30:38;3.00;;;2.22;;
80237;SDS011;69544;42.138;24.742;2023-04-25T00:33:07;3.47;;;2.40;;
80237;SDS011;69544;42.138;24.742;2023-04-25T00:35:33;2.78;;;2.30;;
80237;SDS011;69544;42.138;24.742;2023-04-25T00:37:59;2.90;;;2.33;;
80237;SDS011;69544;42.138;24.742;2023-04-25T00:40:25;2.83;;;2.33;;
80237;SDS011;69544;42.138;24.742;2023-04-25T00:42:51;3.20;;;2.30;;
80237;SDS011;69544;42.138;24.742;2023-04-25T00:45:18;3.20;;;2.47;;
80237;SDS011;69544;42.138;24.742;2023-04-25T00:47:44;3.58;;;2.30;;
80237;SDS011;69544;42.138;24.742;2023-04-25T00:50:10;4.13;;;2.53;;
80237;SDS011;69544;42.138;24.742;2023-04-25T00:52:40;3.13;;;2.45;;
80237;SDS011;69544;42.138;24.742;2023-04-25T00:55:08;3.28;;;2.40;;
80237;SDS011;69544;42.138;24.742;2023-04-25T00:57:34;3.22;;;2.45;;
80237;SDS011;69544;42.138;24.742;2023-04-25T01:00:00;2.55;;;2.30;;
80237;SDS011;69544;42.138;24.742;2023-04-25T01:02:26;2.63;;;2.40;;
80237;SDS011;69544;42.138;24.742;2023-04-25T01:04:53;3.13;;;2.40;;
80237;SDS011;69544;42.138;24.742;2023-04-25T01:07:19;3.85;;;2.60;;
80237;SDS011;69544;42.138;24.742;2023-04-25T01:09:45;2.78;;;2.30;;
80237;SDS011;69544;42.138;24.742;2023-04-25T01:12:11;3.30;;;2.35;;
80237;SDS011;69544;42.138;24.742;2023-04-25T01:14:38;3.45;;;2.45;;
80237;SDS011;69544;42.138;24.742;2023-04-25T01:17:03;2.80;;;2.50;;
80237;SDS011;69544;42.138;24.742;2023-04-25T01:19:29;2.72;;;2.05;;
80237;SDS011;69544;42.138;24.742;2023-04-25T01:21:55;2.67;;;2.35;;
80237;SDS011;69544;42.138;24.742;2023-04-25T01:24:21;3.72;;;2.30;;
80237;SDS011;69544;42.138;24.742;2023-04-25T01:26:47;2.97;;;2.35;;
80237;SDS011;69544;42.138;24.742;2023-04-25T01:29:16;2.78;;;2.17;;
80237;SDS011;69544;42.138;24.742;2023-04-25T01:31:43;3.13;;;2.30;;
80237;SDS011;69544;42.138;24.742;2023-04-25T01:34:09;2.88;;;2.20;;
80237;SDS011;69544;42.138;24.742;2023-04-25T01:36:36;2.90;;;2.30;;
80237;SDS011;69544;42.138;24.742;2023-04-25T01:39:02;2.53;;;2.10;;
80237;SDS011;69544;42.138;24.742;2023-04-25T01:41:28;2.65;;;1.98;;
80237;SDS011;69544;42.138;24.742;2023-04-25T01:43:54;3.28;;;2.30;;
80237;SDS011;69544;42.138;24.742;2023-04-25T01:46:20;2.92;;;2.20;;
80237;SDS011;69544;42.138;24.742;2023-04-25T01:48:48;3.15;;;2.17;;
80237;SDS011;69544;42.138;24.742;2023-04-25T01:51:13;4.28;;;2.42;;
80237;SDS011;69544;42.138;24.742;2023-04-25T01:53:40;3.92;;;2.28;;
80237;SDS011;69544;42.138;24.742;2023-04-25T01:56:07;2.78;;;2.22;;
80237;SDS011;69544;42.138;24.742;2023-04-25T01:58:32;2.60;;;2.00;;
80237;SDS011;69544;42.138;24.742;2023-04-25T02:00:58;2.72;;;2.10;;
80237;SDS011;69544;42.138;24.742;2023-04-25T02:03:24;4.00;;;2.20;;
80237;SDS011;69544;42.138;24.742;2023-04-25T02:05:49;2.90;;;2.17;;
80237;SDS011;69544;42.138;24.742;2023-04-25T02:08:16;2.42;;;2.20;;
80237;SDS011;69544;42.138;24.742;2023-04-25T02:10:42;4.38;;;2.53;;
80237;SDS011;69544;42.138;24.742;2023-04-25T02:13:07;3.47;;;2.45;;
80237;SDS011;69544;42.138;24.742;2023-04-25T02:15:33;3.35;;;2.38;;
80237;SDS011;69544;42.138;24.742;2023-04-25T02:17:59;3.15;;;2.22;;
80237;SDS011;69544;42.138;24.742;2023-04-25T02:20:25;2.33;;;2.13;;
80237;SDS011;69544;42.138;24.742;2023-04-25T02:22:51;3.25;;;2.40;;
80237;SDS011;69544;42.138;24.742;2023-04-25T02:25:17;3.17;;;2.30;;
80237;SDS011;69544;42.138;24.742;2023-04-25T02:27:45;3.08;;;2.22;;
80237;SDS011;69544;42.138;24.742;2023-04-25T02:30:11;2.30;;;2.10;;
80237;SDS011;69544;42.138;24.742;2023-04-25T02:32:38;2.97;;;2.28;;
80237;SDS011;69544;42.138;24.742;2023-04-25T02:35:04;2.25;;;2.05;;
80237;SDS011;69544;42.138;24.742;2023-04-25T02:37:32;2.80;;;2.17;;
80237;SDS011;69544;42.138;24.742;2023-04-25T02:39:59;2.58;;;2.13;;
80237;SDS011;69544;42.138;24.742;2023-04-25T02:42:26;2.63;;;2.17;;
80237;SDS011;69544;42.138;24.742;2023-04-25T02:44:52;2.90;;;2.20;;
80237;SDS011;69544;42.138;24.742;2023-04-25T02:47:18;2.42;;;2.08;;
80237;SDS011;69544;42.138;24.742;2023-04-25T02:49:45;2.92;;;2.05;;
80237;SDS011;69544;42.138;24.742;2023-04-25T02:52:11;3.15;;;2.15;;
80237;SDS011;69544;42.138;24.742;2023-04-25T02:54:37;3.10;;;2.20;;
80237;SDS011;69544;42.138;24.742;2023-04-25T02:57:05;2.65;;;2.10;;
80237;SDS011;69544;42.138;24.742;2023-04-25T02:59:30;2.92;;;2.20;;
80237;SDS011;69544;42.138;24.742;2023-04-25T03:01:56;3.35;;;2.00;;
80237;SDS011;69544;42.138;24.742;2023-04-25T03:04:22;4.78;;;2.25;;
80237;SDS011;69544;42.138;24.742;2023-04-25T03:06:48;2.58;;;2.20;;
80237;SDS011;69544;42.138;24.742;2023-04-25T03:09:18;3.42;;;2.10;;
80237;SDS011;69544;42.138;24.742;2023-04-25T03:11:44;2.80;;;2.17;;
80237;SDS011;69544;42.138;24.742;2023-04-25T03:14:10;2.47;;;2.00;;
80237;SDS011;69544;42.138;24.742;2023-04-25T03:16:36;2.65;;;2.20;;
80237;SDS011;69544;42.138;24.742;2023-04-25T03:19:03;2.53;;;2.10;;
80237;SDS011;69544;42.138;24.742;2023-04-25T03:21:29;2.85;;;2.25;;
80237;SDS011;69544;42.138;24.742;2023-04-25T03:23:57;4.20;;;2.22;;
80237;SDS011;69544;42.138;24.742;2023-04-25T03:26:26;2.90;;;2.30;;
80237;SDS011;69544;42.138;24.742;2023-04-25T03:28:51;3.50;;;2.42;;
80237;SDS011;69544;42.138;24.742;2023-04-25T03:31:17;2.63;;;1.90;;
80237;SDS011;69544;42.138;24.742;2023-04-25T03:33:43;2.35;;;1.95;;
80237;SDS011;69544;42.138;24.742;2023-04-25T03:36:08;2.33;;;2.13;;
80237;SDS011;69544;42.138;24.742;2023-04-25T03:38:34;2.53;;;2.10;;
80237;SDS011;69544;42.138;24.742;2023-04-25T03:41:01;4.00;;;2.25;;
80237;SDS011;69544;42.138;24.742;2023-04-25T03:43:27;2.88;;;2.20;;
80237;SDS011;69544;42.138;24.742;2023-04-25T03:45:53;3.13;;;2.08;;
80237;SDS011;69544;42.138;24.742;2023-04-25T03:48:19;2.05;;;1.85;;
80237;SDS011;69544;42.138;24.742;2023-04-25T03:50:49;2.80;;;2.20;;
80237;SDS011;69544;42.138;24.742;2023-04-25T03:53:15;2.72;;;2.00;;
80237;SDS011;69544;42.138;24.742;2023-04-25T03:55:43;3.78;;;2.30;;
80237;SDS011;69544;42.138;24.742;2023-04-25T03:58:09;2.45;;;2.17;;
80237;SDS011;69544;42.138;24.742;2023-04-25T04:00:35;2.67;;;2.00;;
80237;SDS011;69544;42.138;24.742;2023-04-25T04:03:03;2.58;;;2.00;;
80237;SDS011;69544;42.138;24.742;2023-04-25T04:05:29;2.10;;;1.90;;
80237;SDS011;69544;42.138;24.742;2023-04-25T04:07:55;2.53;;;2.10;;
80237;SDS011;69544;42.138;24.742;2023-04-25T04:10:21;2.42;;;2.17;;
80237;SDS011;69544;42.138;24.742;2023-04-25T04:12:46;2.25;;;2.05;;
80237;SDS011;69544;42.138;24.742;2023-04-25T04:15:14;2.42;;;2.00;;
80237;SDS011;69544;42.138;24.742;2023-04-25T04:17:40;3.00;;;2.20;;
80237;SDS011;69544;42.138;24.742;2023-04-25T04:20:06;2.70;;;2.05;;
80237;SDS011;69544;42.138;24.742;2023-04-25T04:22:33;9.02;;;6.00;;
80237;SDS011;69544;42.138;24.742;2023-04-25T04:25:02;11.32;;;5.95;;
80237;SDS011;69544;42.138;24.742;2023-04-25T04:27:28;12.07;;;6.13;;
80237;SDS011;69544;42.138;24.742;2023-04-25T04:29:54;14.73;;;9.05;;
80237;SDS011;69544;42.138;24.742;2023-04-25T04:32:19;18.70;;;7.50;;
80237;SDS011;69544;42.138;24.742;2023-04-25T04:34:45;11.00;;;6.95;;
80237;SDS011;69544;42.138;24.742;2023-04-25T04:37:12;10.45;;;7.00;;
80237;SDS011;69544;42.138;24.742;2023-04-25T04:39:38;15.60;;;7.47;;
80237;SDS011;69544;42.138;24.742;2023-04-25T04:42:04;19.00;;;8.15;;
80237;SDS011;69544;42.138;24.742;2023-04-25T04:44:30;17.35;;;9.02;;
80237;SDS011;69544;42.138;24.742;2023-04-25T04:46:59;20.52;;;7.20;;
80237;SDS011;69544;42.138;24.742;2023-04-25T04:49:25;19.65;;;7.55;;
80237;SDS011;69544;42.138;24.742;2023-04-25T04:51:51;18.80;;;8.52;;
80237;SDS011;69544;42.138;24.742;2023-04-25T04:54:17;22.95;;;8.05;;
80237;SDS011;69544;42.138;24.742;2023-04-25T04:56:42;16.20;;;7.57;;
80237;SDS011;69544;42.138;24.742;2023-04-25T04:59:08;18.70;;;7.20;;
80237;SDS011;69544;42.138;24.742;2023-04-25T05:01:34;26.10;;;7.47;;
80237;SDS011;69544;42.138;24.742;2023-04-25T05:04:03;11.15;;;7.10;;
80237;SDS011;69544;42.138;24.742;2023-04-25T05:06:29;11.02;;;6.95;;
80237;SDS011;69544;42.138;24.742;2023-04-25T05:08:56;10.07;;;7.50;;
80237;SDS011;69544;42.138;24.742;2023-04-25T05:11:22;12.40;;;8.43;;
80237;SDS011;69544;42.138;24.742;2023-04-25T05:13:49;14.38;;;8.45;;
80237;SDS011;69544;42.138;24.742;2023-04-25T05:16:16;12.38;;;8.07;;
80237;SDS011;69544;42.138;24.742;2023-04-25T05:18:45;17.02;;;7.88;;
80237;SDS011;69544;42.138;24.742;2023-04-25T05:21:11;20.65;;;7.57;;
80237;SDS011;69544;42.138;24.742;2023-04-25T05:23:37;13.75;;;8.18;;
80237;SDS011;69544;42.138;24.742;2023-04-25T05:26:03;15.35;;;7.57;;
80237;SDS011;69544;42.138;24.742;2023-04-25T05:28:28;15.43;;;8.65;;
80237;SDS011;69544;42.138;24.742;2023-04-25T05:30:54;12.60;;;8.20;;
80237;SDS011;69544;42.138;24.742;2023-04-25T05:33:20;17.50;;;8.90;;
80237;SDS011;69544;42.138;24.742;2023-04-25T05:35:45;24.35;;;12.60;;
80237;SDS011;69544;42.138;24.742;2023-04-25T05:38:11;23.23;;;9.23;;
80237;SDS011;69544;42.138;24.742;2023-04-25T05:40:39;16.40;;;8.20;;
80237;SDS011;69544;42.138;24.742;2023-04-25T05:43:05;20.38;;;8.93;;
80237;SDS011;69544;42.138;24.742;2023-04-25T05:45:30;21.80;;;8.65;;
80237;SDS011;69544;42.138;24.742;2023-04-25T05:47:56;14.18;;;8.45;;
80237;SDS011;69544;42.138;24.742;2023-04-25T05:50:24;16.00;;;8.00;;
80237;SDS011;69544;42.138;24.742;2023-04-25T05:52:52;14.95;;;8.27;;
80237;SDS011;69544;42.138;24.742;2023-04-25T05:55:18;17.15;;;9.48;;
80237;SDS011;69544;42.138;24.742;2023-04-25T05:57:46;18.13;;;9.15;;
80237;SDS011;69544;42.138;24.742;2023-04-25T06:00:12;18.70;;;8.75;;
80237;SDS011;69544;42.138;24.742;2023-04-25T06:02:40;19.40;;;9.18;;
80237;SDS011;69544;42.138;24.742;2023-04-25T06:05:05;20.80;;;9.75;;
80237;SDS011;69544;42.138;24.742;2023-04-25T06:07:31;19.98;;;8.88;;
80237;SDS011;69544;42.138;24.742;2023-04-25T06:09:57;29.48;;;11.27;;
80237;SDS011;69544;42.138;24.742;2023-04-25T06:12:23;15.77;;;8.70;;
80237;SDS011;69544;42.138;24.742;2023-04-25T06:14:49;17.67;;;8.05;;
80237;SDS011;69544;42.138;24.742;2023-04-25T06:17:14;12.10;;;8.00;;
80237;SDS011;69544;42.138;24.742;2023-04-25T06:19:40;18.65;;;8.73;;
80237;SDS011;69544;42.138;24.742;2023-04-25T06:22:06;18.15;;;7.40;;
80237;SDS011;69544;42.138;24.742;2023-04-25T06:24:35;15.38;;;7.97;;
80237;SDS011;69544;42.138;24.742;2023-04-25T06:27:00;23.52;;;8.38;;
80237;SDS011;69544;42.138;24.742;2023-04-25T06:29:26;14.50;;;7.45;;
80237;SDS011;69544;42.138;24.742;2023-04-25T06:31:52;17.63;;;7.85;;
80237;SDS011;69544;42.138;24.742;2023-04-25T06:34:18;13.70;;;6.78;;
80237;SDS011;69544;42.138;24.742;2023-04-25T06:36:43;17.05;;;7.57;;
80237;SDS011;69544;42.138;24.742;2023-04-25T06:39:09;20.25;;;7.60;;
80237;SDS011;69544;42.138;24.742;2023-04-25T06:41:38;17.90;;;7.13;;
80237;SDS011;69544;42.138;24.742;2023-04-25T06:44:04;13.80;;;8.20;;
80237;SDS011;69544;42.138;24.742;2023-04-25T06:46:30;23.20;;;8.95;;
80237;SDS011;69544;42.138;24.742;2023-04-25T06:48:55;22.88;;;7.93;;
80237;SDS011;69544;42.138;24.742;2023-04-25T06:51:21;13.90;;;8.02;;
80237;SDS011;69544;42.138;24.742;2023-04-25T06:53:47;21.30;;;8.13;;
80237;SDS011;69544;42.138;24.742;2023-04-25T06:56:12;26.52;;;8.27;;
80237;SDS011;69544;42.138;24.742;2023-04-25T06:58:41;22.75;;;10.85;;
80237;SDS011;69544;42.138;24.742;2023-04-25T07:01:06;30.23;;;10.98;;
80237;SDS011;69544;42.138;24.742;2023-04-25T07:03:32;42.67;;;11.25;;
80237;SDS011;69544;42.138;24.742;2023-04-25T07:05:58;33.85;;;9.63;;
80237;SDS011;69544;42.138;24.742;2023-04-25T07:08:23;22.10;;;10.52;;
80237;SDS011;69544;42.138;24.742;2023-04-25T07:10:49;19.77;;;9.30;;
80237;SDS011;69544;42.138;24.742;2023-04-25T07:13:15;25.92;;;9.50;;
80237;SDS011;69544;42.138;24.742;2023-04-25T07:15:41;31.42;;;8.52;;
80237;SDS011;69544;42.138;24.742;2023-04-25T07:18:07;30.52;;;8.63;;
80237;SDS011;69544;42.138;24.742;2023-04-25T07:20:32;19.00;;;8.77;;
80237;SDS011;69544;42.138;24.742;2023-04-25T07:22:58;20.92;;;9.40;;
80237;SDS011;69544;42.138;24.742;2023-04-25T07:25:24;13.90;;;9.25;;
80237;SDS011;69544;42.138;24.742;2023-04-25T07:27:50;14.98;;;8.02;;
80237;SDS011;69544;42.138;24.742;2023-04-25T07:30:15;20.60;;;8.95;;
80237;SDS011;69544;42.138;24.742;2023-04-25T07:32:41;17.27;;;7.93;;
80237;SDS011;69544;42.138;24.742;2023-04-25T07:35:07;30.25;;;8.52;;
80237;SDS011;69544;42.138;24.742;2023-04-25T07:37:33;18.05;;;8.85;;
80237;SDS011;69544;42.138;24.742;2023-04-25T07:40:01;17.50;;;8.60;;
80237;SDS011;69544;42.138;24.742;2023-04-25T07:42:28;15.00;;;7.60;;
80237;SDS011;69544;42.138;24.742;2023-04-25T07:44:54;12.77;;;7.35;;
80237;SDS011;69544;42.138;24.742;2023-04-25T07:47:20;13.18;;;5.82;;
80237;SDS011;69544;42.138;24.742;2023-04-25T07:49:46;15.13;;;5.88;;
80237;SDS011;69544;42.138;24.742;2023-04-25T07:52:12;14.40;;;5.40;;
80237;SDS011;69544;42.138;24.742;2023-04-25T07:54:38;11.15;;;5.60;;
80237;SDS011;69544;42.138;24.742;2023-04-25T07:57:04;21.85;;;5.53;;
80237;SDS011;69544;42.138;24.742;2023-04-25T07:59:31;13.10;;;5.35;;
80237;SDS011;69544;42.138;24.742;2023-04-25T08:01:57;21.67;;;5.55;;
80237;SDS011;69544;42.138;24.742;2023-04-25T08:04:23;26.80;;;5.20;;
80237;SDS011;69544;42.138;24.742;2023-04-25T08:06:49;12.93;;;5.32;;
80237;SDS011;69544;42.138;24.742;2023-04-25T08:09:15;20.38;;;5.05;;
80237;SDS011;69544;42.138;24.742;2023-04-25T08:11:41;13.50;;;5.03;;
80237;SDS011;69544;42.138;24.742;2023-04-25T08:14:07;16.88;;;4.68;;
80237;SDS011;69544;42.138;24.742;2023-04-25T08:16:33;20.00;;;4.47;;
80237;SDS011;69544;42.138;24.742;2023-04-25T08:19:01;16.10;;;4.55;;
80237;SDS011;69544;42.138;24.742;2023-04-25T08:21:27;15.18;;;4.45;;
80237;SDS011;69544;42.138;24.742;2023-04-25T08:23:53;23.02;;;4.45;;
80237;SDS011;69544;42.138;24.742;2023-04-25T08:26:19;15.73;;;4.20;;
80237;SDS011;69544;42.138;24.742;2023-04-25T08:28:45;11.45;;;4.20;;
80237;SDS011;69544;42.138;24.742;2023-04-25T08:31:11;10.52;;;3.90;;
80237;SDS011;69544;42.138;24.742;2023-04-25T08:33:37;9.93;;;4.10;;
80237;SDS011;69544;42.138;24.742;2023-04-25T08:36:03;9.63;;;3.42;;
80237;SDS011;69544;42.138;24.742;2023-04-25T08:38:28;8.93;;;3.92;;
80237;SDS011;69544;42.138;24.742;2023-04-25T08:40:55;15.10;;;4.78;;
80237;SDS011;69544;42.138;24.742;2023-04-25T08:43:24;14.93;;;4.07;;
80237;SDS011;69544;42.138;24.742;2023-04-25T08:45:50;13.95;;;4.35;;
80237;SDS011;69544;42.138;24.742;2023-04-25T08:48:19;14.63;;;4.20;;
80237;SDS011;69544;42.138;24.742;2023-04-25T08:50:49;21.83;;;3.80;;
80237;SDS011;69544;42.138;24.742;2023-04-25T08:53:17;11.05;;;3.95;;
80237;SDS011;69544;42.138;24.742;2023-04-25T08:55:50;9.27;;;3.67;;
80237;SDS011;69544;42.138;24.742;2023-04-25T08:58:18;11.82;;;3.83;;
80237;SDS011;69544;42.138;24.742;2023-04-25T09:00:45;9.98;;;3.65;;
80237;SDS011;69544;42.138;24.742;2023-04-25T09:03:11;10.52;;;3.85;;
80237;SDS011;69544;42.138;24.742;2023-04-25T09:05:40;12.45;;;3.97;;
80237;SDS011;69544;42.138;24.742;2023-04-25T09:08:06;16.48;;;3.90;;
80237;SDS011;69544;42.138;24.742;2023-04-25T09:10:32;11.82;;;3.60;;
80237;SDS011;69544;42.138;24.742;2023-04-25T09:13:02;12.70;;;3.72;;
80237;SDS011;69544;42.138;24.742;2023-04-25T09:15:49;12.23;;;3.72;;
80237;SDS011;69544;42.138;24.742;2023-04-25T09:18:29;12.30;;;3.53;;
80237;SDS011;69544;42.138;24.742;2023-04-25T09:20:58;17.33;;;3.80;;
80237;SDS011;69544;42.138;24.742;2023-04-25T09:23:30;10.40;;;3.40;;
80237;SDS011;69544;42.138;24.742;2023-04-25T09:26:03;11.93;;;3.50;;
80237;SDS011;69544;42.138;24.742;2023-04-25T09:28:31;12.93;;;3.40;;
80237;SDS011;69544;42.138;24.742;2023-04-25T09:30:57;10.43;;;3.55;;
80237;SDS011;69544;42.138;24.742;2023-04-25T09:33:33;9.57;;;3.33;;
80237;SDS011;69544;42.138;24.742;2023-04-25T09:36:02;11.23;;;3.40;;
80237;SDS011;69544;42.138;24.742;2023-04-25T09:38:39;9.50;;;3.50;;
80237;SDS011;69544;42.138;24.742;2023-04-25T09:41:07;8.60;;;2.90;;
80237;SDS011;69544;42.138;24.742;2023-04-25T09:43:33;8.32;;;3.30;;
80237;SDS011;69544;42.138;24.742;2023-04-25T09:46:00;7.28;;;3.10;;
80237;SDS011;69544;42.138;24.742;2023-04-25T09:48:26;6.65;;;3.13;;
80237;SDS011;69544;42.138;24.742;2023-04-25T09:51:12;6.22;;;3.25;;
80237;SDS011;69544;42.138;24.742;2023-04-25T09:53:42;8.65;;;3.20;;
80237;SDS011;69544;42.138;24.742;2023-04-25T09:56:09;22.15;;;3.55;;
80237;SDS011;69544;42.138;24.742;2023-04-25T09:58:38;14.02;;;3.40;;
80237;SDS011;69544;42.138;24.742;2023-04-25T10:01:05;12.35;;;3.10;;
80237;SDS011;69544;42.138;24.742;2023-04-25T10:03:36;20.02;;;3.25;;
80237;SDS011;69544;42.138;24.742;2023-04-25T10:06:08;19.92;;;3.75;;
80237;SDS011;69544;42.138;24.742;2023-04-25T10:08:37;12.38;;;3.28;;
80237;SDS011;69544;42.138;24.742;2023-04-25T10:11:04;8.60;;;3.35;;
80237;SDS011;69544;42.138;24.742;2023-04-25T10:13:31;8.63;;;3.20;;
80237;SDS011;69544;42.138;24.742;2023-04-25T10:15:58;14.63;;;3.28;;
80237;SDS011;69544;42.138;24.742;2023-04-25T10:18:26;9.23;;;3.33;;
80237;SDS011;69544;42.138;24.742;2023-04-25T10:20:57;11.88;;;3.30;;
80237;SDS011;69544;42.138;24.742;2023-04-25T10:23:25;7.30;;;3.20;;
80237;SDS011;69544;42.138;24.742;2023-04-25T10:25:52;10.75;;;3.30;;
80237;SDS011;69544;42.138;24.742;2023-04-25T10:28:20;8.73;;;3.33;;
80237;SDS011;69544;42.138;24.742;2023-04-25T10:33:35;12.18;;;3.20;;
80237;SDS011;69544;42.138;24.742;2023-04-25T10:36:12;7.20;;;2.88;;
80237;SDS011;69544;42.138;24.742;2023-04-25T10:38:40;6.57;;;2.88;;
80237;SDS011;69544;42.138;24.742;2023-04-25T10:41:08;9.00;;;2.92;;
80237;SDS011;69544;42.138;24.742;2023-04-25T10:43:38;7.72;;;3.03;;
80237;SDS011;69544;42.138;24.742;2023-04-25T10:46:14;10.02;;;3.00;;
80237;SDS011;69544;42.138;24.742;2023-04-25T10:48:47;7.15;;;2.97;;
80237;SDS011;69544;42.138;24.742;2023-04-25T10:54:13;9.63;;;2.88;;
80237;SDS011;69544;42.138;24.742;2023-04-25T10:56:38;6.15;;;2.97;;
80237;SDS011;69544;42.138;24.742;2023-04-25T10:59:16;5.70;;;3.20;;
80237;SDS011;69544;42.138;24.742;2023-04-25T11:01:44;6.93;;;2.92;;
80237;SDS011;69544;42.138;24.742;2023-04-25T11:09:33;4.50;;;2.80;;
80237;SDS011;69544;42.138;24.742;2023-04-25T11:11:59;5.20;;;2.70;;
80237;SDS011;69544;42.138;24.742;2023-04-25T11:14:25;6.78;;;2.75;;
80237;SDS011;69544;42.138;24.742;2023-04-25T11:16:55;5.25;;;2.63;;
80237;SDS011;69544;42.138;24.742;2023-04-25T11:19:21;6.85;;;3.10;;
80237;SDS011;69544;42.138;24.742;2023-04-25T11:21:48;4.63;;;2.70;;
80237;SDS011;69544;42.138;24.742;2023-04-25T11:24:15;7.78;;;2.78;;
80237;SDS011;69544;42.138;24.742;2023-04-25T11:26:42;5.72;;;3.03;;
80237;SDS011;69544;42.138;24.742;2023-04-25T11:29:08;4.55;;;2.47;;
80237;SDS011;69544;42.138;24.742;2023-04-25T11:31:34;10.73;;;2.83;;
80237;SDS011;69544;42.138;24.742;2023-04-25T11:34:00;4.95;;;2.60;;
80237;SDS011;69544;42.138;24.742;2023-04-25T11:36:26;5.93;;;2.70;;
80237;SDS011;69544;42.138;24.742;2023-04-25T11:38:52;5.05;;;2.70;;
80237;SDS011;69544;42.138;24.742;2023-04-25T11:41:21;6.07;;;2.78;;
80237;SDS011;69544;42.138;24.742;2023-04-25T11:43:47;4.63;;;2.45;;
80237;SDS011;69544;42.138;24.742;2023-04-25T11:46:15;6.65;;;2.70;;
80237;SDS011;69544;42.138;24.742;2023-04-25T11:48:41;5.43;;;2.70;;
80237;SDS011;69544;42.138;24.742;2023-04-25T11:51:07;5.70;;;2.83;;
80237;SDS011;69544;42.138;24.742;2023-04-25T11:53:34;6.25;;;2.75;;
80237;SDS011;69544;42.138;24.742;2023-04-25T11:56:00;6.47;;;2.70;;
80237;SDS011;69544;42.138;24.742;2023-04-25T11:58:26;5.45;;;2.60;;
80237;SDS011;69544;42.138;24.742;2023-04-25T12:00:52;3.53;;;2.40;;
80237;SDS011;69544;42.138;24.742;2023-04-25T12:03:19;4.25;;;2.65;;
80237;SDS011;69544;42.138;24.742;2023-04-25T12:05:45;6.90;;;2.97;;
80237;SDS011;69544;42.138;24.742;2023-04-25T12:08:11;4.15;;;2.60;;
80237;SDS011;69544;42.138;24.742;2023-04-25T12:10:38;3.83;;;2.55;;
80237;SDS011;69544;42.138;24.742;2023-04-25T12:13:18;4.25;;;2.50;;
80237;SDS011;69544;42.138;24.742;2023-04-25T12:15:45;4.40;;;2.72;;
80237;SDS011;69544;42.138;24.742;2023-04-25T12:18:11;4.78;;;2.42;;
80237;SDS011;69544;42.138;24.742;2023-04-25T12:20:36;5.32;;;2.30;;
80237;SDS011;69544;42.138;24.742;2023-04-25T12:23:05;8.55;;;2.70;;
80237;SDS011;69544;42.138;24.742;2023-04-25T12:25:41;8.50;;;2.53;;
80237;SDS011;69544;42.138;24.742;2023-04-25T12:31:02;6.40;;;2.38;;
80237;SDS011;69544;42.138;24.742;2023-04-25T12:33:31;5.35;;;2.33;;
80237;SDS011;69544;42.138;24.742;2023-04-25T12:38:40;3.88;;;2.50;;
80237;SDS011;69544;42.138;24.742;2023-04-25T12:41:07;4.25;;;2.28;;
80237;SDS011;69544;42.138;24.742;2023-04-25T12:43:33;5.28;;;2.70;;
80237;SDS011;69544;42.138;24.742;2023-04-25T12:45:59;5.03;;;2.38;;
80237;SDS011;69544;42.138;24.742;2023-04-25T12:48:25;6.57;;;2.67;;
80237;SDS011;69544;42.138;24.742;2023-04-25T12:50:51;3.00;;;2.10;;
80237;SDS011;69544;42.138;24.742;2023-04-25T12:53:20;7.55;;;2.30;;
80237;SDS011;69544;42.138;24.742;2023-04-25T12:55:47;6.30;;;2.38;;
80237;SDS011;69544;42.138;24.742;2023-04-25T12:58:14;4.45;;;2.30;;
80237;SDS011;69544;42.138;24.742;2023-04-25T13:00:40;4.00;;;2.30;;
80237;SDS011;69544;42.138;24.742;2023-04-25T13:03:07;4.05;;;2.30;;
80237;SDS011;69544;42.138;24.742;2023-04-25T13:05:34;5.75;;;2.47;;
80237;SDS011;69544;42.138;24.742;2023-04-25T13:07:59;6.55;;;2.53;;
80237;SDS011;69544;42.138;24.742;2023-04-25T13:10:25;5.53;;;2.30;;
80237;SDS011;69544;42.138;24.742;2023-04-25T13:12:51;3.58;;;2.40;;
80237;SDS011;69544;42.138;24.742;2023-04-25T13:15:16;5.03;;;2.20;;
80237;SDS011;69544;42.138;24.742;2023-04-25T13:17:42;3.78;;;2.30;;
80237;SDS011;69544;42.138;24.742;2023-04-25T13:20:08;5.13;;;2.40;;
80237;SDS011;69544;42.138;24.742;2023-04-25T13:22:35;3.45;;;2.22;;
80237;SDS011;69544;42.138;24.742;2023-04-25T13:25:02;4.45;;;2.25;;
80237;SDS011;69544;42.138;24.742;2023-04-25T13:27:29;4.82;;;2.30;;
80237;SDS011;69544;42.138;24.742;2023-04-25T13:29:55;6.40;;;2.70;;
80237;SDS011;69544;42.138;24.742;2023-04-25T13:32:21;5.18;;;2.50;;
80237;SDS011;69544;42.138;24.742;2023-04-25T13:34:46;3.17;;;2.05;;
80237;SDS011;69544;42.138;24.742;2023-04-25T13:37:12;3.75;;;2.20;;
80237;SDS011;69544;42.138;24.742;2023-04-25T13:39:38;3.72;;;2.20;;
80237;SDS011;69544;42.138;24.742;2023-04-25T13:42:03;3.22;;;2.08;;
80237;SDS011;69544;42.138;24.742;2023-04-25T13:44:29;3.28;;;2.22;;
80237;SDS011;69544;42.138;24.742;2023-04-25T13:46:55;3.80;;;1.90;;
80237;SDS011;69544;42.138;24.742;2023-04-25T13:49:20;5.82;;;2.40;;
80237;SDS011;69544;42.138;24.742;2023-04-25T13:51:47;6.25;;;2.28;;
80237;SDS011;69544;42.138;24.742;2023-04-25T13:54:13;3.55;;;2.30;;
80237;SDS011;69544;42.138;24.742;2023-04-25T13:56:39;3.15;;;2.33;;
80237;SDS011;69544;42.138;24.742;2023-04-25T13:59:07;5.15;;;2.55;;
80237;SDS011;69544;42.138;24.742;2023-04-25T14:01:32;3.17;;;2.38;;
80237;SDS011;69544;42.138;24.742;2023-04-25T14:04:00;4.65;;;2.20;;
80237;SDS011;69544;42.138;24.742;2023-04-25T14:06:26;3.70;;;1.92;;
80237;SDS011;69544;42.138;24.742;2023-04-25T14:08:53;2.90;;;2.10;;
80237;SDS011;69544;42.138;24.742;2023-04-25T14:11:19;3.95;;;2.25;;
80237;SDS011;69544;42.138;24.742;2023-04-25T14:13:45;4.57;;;2.35;;
80237;SDS011;69544;42.138;24.742;2023-04-25T14:16:11;3.22;;;2.22;;
80237;SDS011;69544;42.138;24.742;2023-04-25T14:18:36;3.67;;;2.35;;
80237;SDS011;69544;42.138;24.742;2023-04-25T14:21:02;3.40;;;2.30;;
80237;SDS011;69544;42.138;24.742;2023-04-25T14:23:28;3.30;;;2.20;;
80237;SDS011;69544;42.138;24.742;2023-04-25T14:25:53;3.90;;;2.17;;
80237;SDS011;69544;42.138;24.742;2023-04-25T14:28:19;3.80;;;2.00;;
80237;SDS011;69544;42.138;24.742;2023-04-25T14:30:45;5.80;;;2.10;;
80237;SDS011;69544;42.138;24.742;2023-04-25T14:33:11;4.93;;;2.28;;
80237;SDS011;69544;42.138;24.742;2023-04-25T14:35:36;2.95;;;2.10;;
80237;SDS011;69544;42.138;24.742;2023-04-25T14:38:02;3.75;;;2.05;;
80237;SDS011;69544;42.138;24.742;2023-04-25T14:40:28;3.53;;;2.10;;
80237;SDS011;69544;42.138;24.742;2023-04-25T14:42:54;3.13;;;2.42;;